Raymore, Missouri
Current Conditions -  °F | °C
As of 11:53 PM on Monday 20 Oct 2014 (Local Time) from KLXT Reporting Station
Clear Clear  
Wind Chill: 11°   Ceiling: Unl
Heat Index: 11°   Visibility: 10mi
Dew Point:   Wind: 3mph
Humidity: 77%   Direction: 240°WSW
Pressure: 30.08"   Gusts: NA
Location:  38.8°N, 94.46°W
Report Text: KLXT 210453Z AUTO 24003KT 10SM CLR 11/07 A3008 RMK AO2 SLP182 T01110072
Loading
Personal Weather Stations






























Interactive Weather Map
Tropical Storm Tracking
New forecast layout! Learn more

10-Day Weather Forecast

Advertisements
Track Severe Weather on mobile